sensor_id;sensor_type;location;lat;lon;timestamp;P1;durP1;ratioP1;P2;durP2;ratioP2
15230;SDS011;32569;51.762;8.564;2022-07-23T00:00:20;13.30;;;11.93;;
15230;SDS011;32569;51.762;8.564;2022-07-23T00:02:46;12.07;;;10.23;;
15230;SDS011;32569;51.762;8.564;2022-07-23T00:05:13;11.70;;;10.43;;
15230;SDS011;32569;51.762;8.564;2022-07-23T00:07:40;11.87;;;10.40;;
15230;SDS011;32569;51.762;8.564;2022-07-23T00:10:07;10.90;;;9.80;;
15230;SDS011;32569;51.762;8.564;2022-07-23T00:12:35;11.53;;;10.03;;
15230;SDS011;32569;51.762;8.564;2022-07-23T00:15:02;10.83;;;9.73;;
15230;SDS011;32569;51.762;8.564;2022-07-23T00:17:31;11.07;;;9.90;;
15230;SDS011;32569;51.762;8.564;2022-07-23T00:19:57;10.97;;;9.57;;
15230;SDS011;32569;51.762;8.564;2022-07-23T00:22:24;10.47;;;9.43;;
15230;SDS011;32569;51.762;8.564;2022-07-23T00:24:52;11.37;;;9.53;;
15230;SDS011;32569;51.762;8.564;2022-07-23T00:27:19;13.43;;;10.13;;
15230;SDS011;32569;51.762;8.564;2022-07-23T00:29:45;11.67;;;10.27;;
15230;SDS011;32569;51.762;8.564;2022-07-23T00:32:12;11.00;;;9.90;;
15230;SDS011;32569;51.762;8.564;2022-07-23T00:34:40;10.60;;;9.13;;
15230;SDS011;32569;51.762;8.564;2022-07-23T00:37:07;10.00;;;9.03;;
15230;SDS011;32569;51.762;8.564;2022-07-23T00:39:33;10.73;;;9.60;;
15230;SDS011;32569;51.762;8.564;2022-07-23T00:42:00;10.17;;;9.13;;
15230;SDS011;32569;51.762;8.564;2022-07-23T00:44:27;11.17;;;10.07;;
15230;SDS011;32569;51.762;8.564;2022-07-23T00:46:54;12.53;;;11.33;;
15230;SDS011;32569;51.762;8.564;2022-07-23T00:49:22;13.87;;;11.27;;
15230;SDS011;32569;51.762;8.564;2022-07-23T00:51:52;11.60;;;9.87;;
15230;SDS011;32569;51.762;8.564;2022-07-23T00:54:19;11.77;;;9.90;;
15230;SDS011;32569;51.762;8.564;2022-07-23T00:56:47;9.40;;;8.40;;
15230;SDS011;32569;51.762;8.564;2022-07-23T00:59:14;10.50;;;9.50;;
15230;SDS011;32569;51.762;8.564;2022-07-23T01:01:41;11.23;;;9.47;;
15230;SDS011;32569;51.762;8.564;2022-07-23T01:04:08;10.53;;;8.43;;
15230;SDS011;32569;51.762;8.564;2022-07-23T01:06:36;9.97;;;8.97;;
15230;SDS011;32569;51.762;8.564;2022-07-23T01:09:05;10.70;;;9.40;;
15230;SDS011;32569;51.762;8.564;2022-07-23T01:11:33;10.13;;;9.13;;
15230;SDS011;32569;51.762;8.564;2022-07-23T01:14:07;10.37;;;9.37;;
15230;SDS011;32569;51.762;8.564;2022-07-23T01:16:37;10.27;;;9.23;;
15230;SDS011;32569;51.762;8.564;2022-07-23T01:19:04;11.20;;;10.00;;
15230;SDS011;32569;51.762;8.564;2022-07-23T01:21:32;11.30;;;10.13;;
15230;SDS011;32569;51.762;8.564;2022-07-23T01:24:03;10.27;;;9.10;;
15230;SDS011;32569;51.762;8.564;2022-07-23T01:26:30;9.90;;;8.60;;
15230;SDS011;32569;51.762;8.564;2022-07-23T01:28:57;9.00;;;8.20;;
15230;SDS011;32569;51.762;8.564;2022-07-23T01:31:23;10.07;;;9.00;;
15230;SDS011;32569;51.762;8.564;2022-07-23T01:33:50;12.30;;;10.40;;
15230;SDS011;32569;51.762;8.564;2022-07-23T01:36:17;11.47;;;10.37;;
15230;SDS011;32569;51.762;8.564;2022-07-23T01:38:43;12.40;;;11.20;;
15230;SDS011;32569;51.762;8.564;2022-07-23T01:41:11;13.70;;;11.50;;
15230;SDS011;32569;51.762;8.564;2022-07-23T01:43:38;12.90;;;11.50;;
15230;SDS011;32569;51.762;8.564;2022-07-23T01:46:05;14.97;;;13.13;;
15230;SDS011;32569;51.762;8.564;2022-07-23T01:48:32;14.63;;;13.13;;
15230;SDS011;32569;51.762;8.564;2022-07-23T01:50:58;16.07;;;13.70;;
15230;SDS011;32569;51.762;8.564;2022-07-23T01:53:25;15.37;;;13.87;;
15230;SDS011;32569;51.762;8.564;2022-07-23T01:55:51;15.80;;;14.17;;
15230;SDS011;32569;51.762;8.564;2022-07-23T01:58:19;16.60;;;14.80;;
15230;SDS011;32569;51.762;8.564;2022-07-23T02:00:46;17.40;;;15.60;;
15230;SDS011;32569;51.762;8.564;2022-07-23T02:03:12;16.90;;;15.17;;
15230;SDS011;32569;51.762;8.564;2022-07-23T02:05:39;19.10;;;16.50;;
15230;SDS011;32569;51.762;8.564;2022-07-23T02:08:06;17.90;;;15.83;;
15230;SDS011;32569;51.762;8.564;2022-07-23T02:10:32;20.00;;;16.40;;
15230;SDS011;32569;51.762;8.564;2022-07-23T02:12:59;20.67;;;17.07;;
15230;SDS011;32569;51.762;8.564;2022-07-23T02:15:27;22.20;;;18.97;;
15230;SDS011;32569;51.762;8.564;2022-07-23T02:17:54;22.30;;;19.77;;
15230;SDS011;32569;51.762;8.564;2022-07-23T02:20:21;29.47;;;23.47;;
15230;SDS011;32569;51.762;8.564;2022-07-23T02:22:48;27.73;;;24.23;;
15230;SDS011;32569;51.762;8.564;2022-07-23T02:25:15;25.97;;;23.17;;
15230;SDS011;32569;51.762;8.564;2022-07-23T02:27:42;29.80;;;26.53;;
15230;SDS011;32569;51.762;8.564;2022-07-23T02:30:09;27.67;;;24.77;;
15230;SDS011;32569;51.762;8.564;2022-07-23T02:32:37;28.23;;;22.43;;
15230;SDS011;32569;51.762;8.564;2022-07-23T02:35:06;25.80;;;22.47;;
15230;SDS011;32569;51.762;8.564;2022-07-23T02:37:33;23.77;;;20.17;;
15230;SDS011;32569;51.762;8.564;2022-07-23T02:40:00;24.67;;;19.63;;
15230;SDS011;32569;51.762;8.564;2022-07-23T02:42:26;25.23;;;19.80;;
15230;SDS011;32569;51.762;8.564;2022-07-23T02:44:53;24.30;;;18.60;;
15230;SDS011;32569;51.762;8.564;2022-07-23T02:47:20;23.93;;;19.67;;
15230;SDS011;32569;51.762;8.564;2022-07-23T02:49:47;26.90;;;21.77;;
15230;SDS011;32569;51.762;8.564;2022-07-23T02:52:14;24.77;;;21.43;;
15230;SDS011;32569;51.762;8.564;2022-07-23T02:54:41;23.30;;;19.83;;
15230;SDS011;32569;51.762;8.564;2022-07-23T02:57:07;29.23;;;24.23;;
15230;SDS011;32569;51.762;8.564;2022-07-23T02:59:34;28.90;;;25.20;;
15230;SDS011;32569;51.762;8.564;2022-07-23T03:02:00;23.23;;;20.73;;
15230;SDS011;32569;51.762;8.564;2022-07-23T03:04:27;24.13;;;20.47;;
15230;SDS011;32569;51.762;8.564;2022-07-23T03:06:55;21.73;;;19.43;;
15230;SDS011;32569;51.762;8.564;2022-07-23T03:09:21;23.77;;;17.63;;
15230;SDS011;32569;51.762;8.564;2022-07-23T03:11:48;22.23;;;18.47;;
15230;SDS011;32569;51.762;8.564;2022-07-23T03:14:15;22.73;;;18.40;;
15230;SDS011;32569;51.762;8.564;2022-07-23T03:16:41;24.47;;;18.03;;
15230;SDS011;32569;51.762;8.564;2022-07-23T03:19:08;20.20;;;17.87;;
15230;SDS011;32569;51.762;8.564;2022-07-23T03:21:35;19.20;;;17.07;;
15230;SDS011;32569;51.762;8.564;2022-07-23T03:24:06;21.63;;;17.13;;
15230;SDS011;32569;51.762;8.564;2022-07-23T03:26:33;18.63;;;16.40;;
15230;SDS011;32569;51.762;8.564;2022-07-23T03:28:59;20.33;;;17.40;;
15230;SDS011;32569;51.762;8.564;2022-07-23T03:31:28;18.63;;;16.13;;
15230;SDS011;32569;51.762;8.564;2022-07-23T03:33:55;18.63;;;16.30;;
15230;SDS011;32569;51.762;8.564;2022-07-23T03:36:21;18.90;;;16.67;;
15230;SDS011;32569;51.762;8.564;2022-07-23T03:38:48;19.20;;;17.20;;
15230;SDS011;32569;51.762;8.564;2022-07-23T03:41:17;19.27;;;16.20;;
15230;SDS011;32569;51.762;8.564;2022-07-23T03:43:43;20.57;;;17.40;;
15230;SDS011;32569;51.762;8.564;2022-07-23T03:46:10;19.83;;;17.67;;
15230;SDS011;32569;51.762;8.564;2022-07-23T03:48:37;19.67;;;17.50;;
15230;SDS011;32569;51.762;8.564;2022-07-23T03:51:03;19.87;;;17.87;;
15230;SDS011;32569;51.762;8.564;2022-07-23T03:53:30;21.03;;;18.27;;
15230;SDS011;32569;51.762;8.564;2022-07-23T03:55:57;19.50;;;17.43;;
15230;SDS011;32569;51.762;8.564;2022-07-23T03:58:25;21.57;;;18.30;;
15230;SDS011;32569;51.762;8.564;2022-07-23T04:00:51;20.50;;;18.33;;
15230;SDS011;32569;51.762;8.564;2022-07-23T04:03:18;22.83;;;18.17;;
15230;SDS011;32569;51.762;8.564;2022-07-23T04:05:45;19.80;;;17.70;;
15230;SDS011;32569;51.762;8.564;2022-07-23T04:08:11;21.87;;;19.40;;
15230;SDS011;32569;51.762;8.564;2022-07-23T04:10:38;22.03;;;19.23;;
15230;SDS011;32569;51.762;8.564;2022-07-23T04:13:04;20.60;;;18.20;;
15230;SDS011;32569;51.762;8.564;2022-07-23T04:15:32;19.87;;;17.77;;
15230;SDS011;32569;51.762;8.564;2022-07-23T04:17:59;20.23;;;18.13;;
15230;SDS011;32569;51.762;8.564;2022-07-23T04:20:25;20.07;;;17.97;;
15230;SDS011;32569;51.762;8.564;2022-07-23T04:22:52;19.30;;;17.37;;
15230;SDS011;32569;51.762;8.564;2022-07-23T04:25:19;19.63;;;17.63;;
15230;SDS011;32569;51.762;8.564;2022-07-23T04:27:45;20.00;;;17.90;;
15230;SDS011;32569;51.762;8.564;2022-07-23T04:30:12;19.40;;;17.37;;
15230;SDS011;32569;51.762;8.564;2022-07-23T04:32:40;18.20;;;16.30;;
15230;SDS011;32569;51.762;8.564;2022-07-23T04:35:07;18.60;;;16.63;;
15230;SDS011;32569;51.762;8.564;2022-07-23T04:37:34;18.97;;;16.97;;
15230;SDS011;32569;51.762;8.564;2022-07-23T04:40:01;19.30;;;16.40;;
15230;SDS011;32569;51.762;8.564;2022-07-23T04:42:28;19.30;;;16.13;;
15230;SDS011;32569;51.762;8.564;2022-07-23T04:44:54;19.13;;;16.73;;
15230;SDS011;32569;51.762;8.564;2022-07-23T04:47:21;17.90;;;16.10;;
15230;SDS011;32569;51.762;8.564;2022-07-23T04:49:49;17.10;;;15.60;;
15230;SDS011;32569;51.762;8.564;2022-07-23T04:52:15;16.17;;;14.57;;
15230;SDS011;32569;51.762;8.564;2022-07-23T04:54:42;16.20;;;14.60;;
15230;SDS011;32569;51.762;8.564;2022-07-23T04:57:08;15.83;;;14.40;;
15230;SDS011;32569;51.762;8.564;2022-07-23T04:59:35;14.43;;;13.10;;
15230;SDS011;32569;51.762;8.564;2022-07-23T05:02:02;14.07;;;12.70;;
15230;SDS011;32569;51.762;8.564;2022-07-23T05:04:28;13.33;;;12.23;;
15230;SDS011;32569;51.762;8.564;2022-07-23T05:06:57;13.47;;;12.13;;
15230;SDS011;32569;51.762;8.564;2022-07-23T05:09:24;12.50;;;11.40;;
15230;SDS011;32569;51.762;8.564;2022-07-23T05:11:51;10.73;;;9.83;;
15230;SDS011;32569;51.762;8.564;2022-07-23T05:14:17;11.30;;;10.20;;
15230;SDS011;32569;51.762;8.564;2022-07-23T05:16:44;11.70;;;10.60;;
15230;SDS011;32569;51.762;8.564;2022-07-23T05:19:11;11.63;;;10.63;;
15230;SDS011;32569;51.762;8.564;2022-07-23T05:21:37;12.03;;;10.87;;
15230;SDS011;32569;51.762;8.564;2022-07-23T05:24:06;12.20;;;11.10;;
15230;SDS011;32569;51.762;8.564;2022-07-23T05:26:33;11.33;;;10.23;;
15230;SDS011;32569;51.762;8.564;2022-07-23T05:28:59;12.50;;;11.30;;
15230;SDS011;32569;51.762;8.564;2022-07-23T05:31:26;11.23;;;10.23;;
15230;SDS011;32569;51.762;8.564;2022-07-23T05:33:52;11.87;;;10.77;;
15230;SDS011;32569;51.762;8.564;2022-07-23T05:36:20;11.97;;;10.77;;
15230;SDS011;32569;51.762;8.564;2022-07-23T05:38:46;11.87;;;10.53;;
15230;SDS011;32569;51.762;8.564;2022-07-23T05:41:14;11.93;;;10.73;;
15230;SDS011;32569;51.762;8.564;2022-07-23T05:43:41;12.20;;;10.50;;
15230;SDS011;32569;51.762;8.564;2022-07-23T05:46:07;11.50;;;10.30;;
15230;SDS011;32569;51.762;8.564;2022-07-23T05:48:34;13.37;;;10.47;;
15230;SDS011;32569;51.762;8.564;2022-07-23T05:51:01;11.90;;;10.80;;
15230;SDS011;32569;51.762;8.564;2022-07-23T05:53:28;11.70;;;10.63;;
15230;SDS011;32569;51.762;8.564;2022-07-23T05:55:55;12.20;;;10.97;;
15230;SDS011;32569;51.762;8.564;2022-07-23T05:58:23;11.23;;;10.20;;
15230;SDS011;32569;51.762;8.564;2022-07-23T06:00:49;11.53;;;10.37;;
15230;SDS011;32569;51.762;8.564;2022-07-23T06:03:16;12.00;;;9.73;;
15230;SDS011;32569;51.762;8.564;2022-07-23T06:05:43;10.40;;;9.40;;
15230;SDS011;32569;51.762;8.564;2022-07-23T06:08:09;10.93;;;9.90;;
15230;SDS011;32569;51.762;8.564;2022-07-23T06:10:36;11.27;;;10.10;;
15230;SDS011;32569;51.762;8.564;2022-07-23T06:13:03;11.20;;;10.10;;
15230;SDS011;32569;51.762;8.564;2022-07-23T06:15:30;12.50;;;11.20;;
15230;SDS011;32569;51.762;8.564;2022-07-23T06:17:57;13.20;;;11.90;;
15230;SDS011;32569;51.762;8.564;2022-07-23T06:20:24;13.17;;;11.90;;
15230;SDS011;32569;51.762;8.564;2022-07-23T06:22:50;13.97;;;12.43;;
15230;SDS011;32569;51.762;8.564;2022-07-23T06:25:17;14.80;;;13.30;;
15230;SDS011;32569;51.762;8.564;2022-07-23T06:27:45;15.40;;;13.90;;
15230;SDS011;32569;51.762;8.564;2022-07-23T06:30:12;14.20;;;12.90;;
15230;SDS011;32569;51.762;8.564;2022-07-23T06:32:42;13.60;;;12.30;;
15230;SDS011;32569;51.762;8.564;2022-07-23T06:35:08;15.07;;;12.37;;
15230;SDS011;32569;51.762;8.564;2022-07-23T06:37:35;13.13;;;11.83;;
15230;SDS011;32569;51.762;8.564;2022-07-23T06:40:02;13.37;;;12.07;;
15230;SDS011;32569;51.762;8.564;2022-07-23T06:42:29;12.43;;;11.00;;
15230;SDS011;32569;51.762;8.564;2022-07-23T06:44:55;12.40;;;11.20;;
15230;SDS011;32569;51.762;8.564;2022-07-23T06:47:22;12.33;;;10.33;;
15230;SDS011;32569;51.762;8.564;2022-07-23T06:49:50;11.13;;;10.03;;
15230;SDS011;32569;51.762;8.564;2022-07-23T06:52:17;13.00;;;11.70;;
15230;SDS011;32569;51.762;8.564;2022-07-23T06:54:43;11.57;;;10.43;;
15230;SDS011;32569;51.762;8.564;2022-07-23T06:57:10;10.70;;;9.10;;
15230;SDS011;32569;51.762;8.564;2022-07-23T06:59:37;12.80;;;9.47;;
15230;SDS011;32569;51.762;8.564;2022-07-23T07:02:05;12.73;;;10.40;;
15230;SDS011;32569;51.762;8.564;2022-07-23T07:04:32;11.67;;;10.47;;
15230;SDS011;32569;51.762;8.564;2022-07-23T07:07:00;14.20;;;11.53;;
15230;SDS011;32569;51.762;8.564;2022-07-23T07:09:27;12.43;;;11.17;;
15230;SDS011;32569;51.762;8.564;2022-07-23T07:11:53;11.93;;;10.73;;
15230;SDS011;32569;51.762;8.564;2022-07-23T07:14:21;13.73;;;10.93;;
15230;SDS011;32569;51.762;8.564;2022-07-23T07:16:48;12.43;;;11.13;;
15230;SDS011;32569;51.762;8.564;2022-07-23T07:19:15;13.07;;;11.07;;
15230;SDS011;32569;51.762;8.564;2022-07-23T07:21:41;12.07;;;10.77;;
15230;SDS011;32569;51.762;8.564;2022-07-23T07:24:09;11.77;;;10.33;;
15230;SDS011;32569;51.762;8.564;2022-07-23T07:26:36;11.37;;;10.17;;
15230;SDS011;32569;51.762;8.564;2022-07-23T07:29:03;11.23;;;10.03;;
15230;SDS011;32569;51.762;8.564;2022-07-23T07:31:30;13.43;;;10.27;;
15230;SDS011;32569;51.762;8.564;2022-07-23T07:33:57;12.13;;;10.20;;
15230;SDS011;32569;51.762;8.564;2022-07-23T07:36:24;15.07;;;11.37;;
15230;SDS011;32569;51.762;8.564;2022-07-23T07:38:51;10.80;;;9.70;;
15230;SDS011;32569;51.762;8.564;2022-07-23T07:41:19;11.53;;;9.87;;
15230;SDS011;32569;51.762;8.564;2022-07-23T07:43:49;10.63;;;9.53;;
15230;SDS011;32569;51.762;8.564;2022-07-23T07:46:15;10.83;;;9.73;;
15230;SDS011;32569;51.762;8.564;2022-07-23T07:48:42;10.87;;;9.40;;
15230;SDS011;32569;51.762;8.564;2022-07-23T07:51:08;10.27;;;8.87;;
15230;SDS011;32569;51.762;8.564;2022-07-23T07:53:35;10.87;;;9.00;;
15230;SDS011;32569;51.762;8.564;2022-07-23T07:56:02;10.60;;;9.37;;
15230;SDS011;32569;51.762;8.564;2022-07-23T07:58:30;11.57;;;9.03;;
15230;SDS011;32569;51.762;8.564;2022-07-23T08:00:57;10.07;;;9.00;;
15230;SDS011;32569;51.762;8.564;2022-07-23T08:03:23;10.07;;;8.33;;
15230;SDS011;32569;51.762;8.564;2022-07-23T08:05:50;8.73;;;7.07;;
15230;SDS011;32569;51.762;8.564;2022-07-23T08:08:17;8.83;;;7.23;;
15230;SDS011;32569;51.762;8.564;2022-07-23T08:10:43;9.17;;;7.50;;
15230;SDS011;32569;51.762;8.564;2022-07-23T08:13:12;9.90;;;7.53;;
15230;SDS011;32569;51.762;8.564;2022-07-23T08:15:40;9.60;;;8.30;;
15230;SDS011;32569;51.762;8.564;2022-07-23T08:18:07;8.73;;;7.73;;
15230;SDS011;32569;51.762;8.564;2022-07-23T08:20:34;9.07;;;6.93;;
15230;SDS011;32569;51.762;8.564;2022-07-23T08:23:02;7.90;;;6.40;;
15230;SDS011;32569;51.762;8.564;2022-07-23T08:25:31;7.80;;;6.33;;
15230;SDS011;32569;51.762;8.564;2022-07-23T08:27:59;7.20;;;6.50;;
15230;SDS011;32569;51.762;8.564;2022-07-23T08:30:27;6.50;;;6.00;;
15230;SDS011;32569;51.762;8.564;2022-07-23T08:32:57;7.67;;;6.33;;
15230;SDS011;32569;51.762;8.564;2022-07-23T08:35:26;8.57;;;7.70;;
15230;SDS011;32569;51.762;8.564;2022-07-23T08:37:54;7.40;;;6.60;;
15230;SDS011;32569;51.762;8.564;2022-07-23T08:40:21;8.13;;;6.60;;
15230;SDS011;32569;51.762;8.564;2022-07-23T08:42:48;7.43;;;6.30;;
15230;SDS011;32569;51.762;8.564;2022-07-23T08:45:16;7.43;;;6.73;;
15230;SDS011;32569;51.762;8.564;2022-07-23T08:47:45;8.20;;;7.33;;
15230;SDS011;32569;51.762;8.564;2022-07-23T08:50:15;8.77;;;6.33;;
15230;SDS011;32569;51.762;8.564;2022-07-23T08:52:42;7.50;;;6.53;;
15230;SDS011;32569;51.762;8.564;2022-07-23T08:55:09;7.23;;;6.53;;
15230;SDS011;32569;51.762;8.564;2022-07-23T08:57:36;7.27;;;5.83;;
15230;SDS011;32569;51.762;8.564;2022-07-23T09:00:03;6.80;;;6.10;;
15230;SDS011;32569;51.762;8.564;2022-07-23T09:02:31;7.10;;;6.50;;
15230;SDS011;32569;51.762;8.564;2022-07-23T09:05:05;7.37;;;6.37;;
15230;SDS011;32569;51.762;8.564;2022-07-23T09:07:33;7.47;;;6.77;;
15230;SDS011;32569;51.762;8.564;2022-07-23T09:10:07;7.77;;;6.77;;
15230;SDS011;32569;51.762;8.564;2022-07-23T09:12:35;8.00;;;6.73;;
15230;SDS011;32569;51.762;8.564;2022-07-23T09:15:05;7.97;;;6.57;;
15230;SDS011;32569;51.762;8.564;2022-07-23T09:17:37;6.70;;;6.07;;
15230;SDS011;32569;51.762;8.564;2022-07-23T09:20:09;7.43;;;6.23;;
15230;SDS011;32569;51.762;8.564;2022-07-23T09:22:39;6.87;;;6.27;;
15230;SDS011;32569;51.762;8.564;2022-07-23T09:25:12;6.83;;;6.23;;
15230;SDS011;32569;51.762;8.564;2022-07-23T09:27:46;6.77;;;6.07;;
15230;SDS011;32569;51.762;8.564;2022-07-23T09:30:15;6.97;;;6.07;;
15230;SDS011;32569;51.762;8.564;2022-07-23T09:32:42;7.87;;;7.13;;
15230;SDS011;32569;51.762;8.564;2022-07-23T09:35:09;7.37;;;6.67;;
15230;SDS011;32569;51.762;8.564;2022-07-23T09:37:36;7.60;;;6.47;;
15230;SDS011;32569;51.762;8.564;2022-07-23T09:40:05;7.20;;;6.53;;
15230;SDS011;32569;51.762;8.564;2022-07-23T09:42:34;7.63;;;6.80;;
15230;SDS011;32569;51.762;8.564;2022-07-23T09:45:01;9.23;;;7.83;;
15230;SDS011;32569;51.762;8.564;2022-07-23T09:47:29;9.13;;;8.17;;
15230;SDS011;32569;51.762;8.564;2022-07-23T09:49:58;8.17;;;7.37;;
15230;SDS011;32569;51.762;8.564;2022-07-23T09:52:26;9.23;;;8.43;;
15230;SDS011;32569;51.762;8.564;2022-07-23T09:54:57;8.10;;;7.10;;
15230;SDS011;32569;51.762;8.564;2022-07-23T09:57:27;8.60;;;7.43;;
15230;SDS011;32569;51.762;8.564;2022-07-23T09:59:54;6.90;;;6.20;;
15230;SDS011;32569;51.762;8.564;2022-07-23T10:02:24;7.17;;;6.57;;
15230;SDS011;32569;51.762;8.564;2022-07-23T10:04:52;7.50;;;6.80;;
15230;SDS011;32569;51.762;8.564;2022-07-23T10:07:19;8.17;;;7.37;;
15230;SDS011;32569;51.762;8.564;2022-07-23T10:09:49;7.77;;;6.97;;
15230;SDS011;32569;51.762;8.564;2022-07-23T10:12:17;8.03;;;7.00;;
15230;SDS011;32569;51.762;8.564;2022-07-23T10:14:53;7.47;;;6.87;;
15230;SDS011;32569;51.762;8.564;2022-07-23T10:17:22;7.93;;;7.23;;
15230;SDS011;32569;51.762;8.564;2022-07-23T10:19:48;7.37;;;6.67;;
15230;SDS011;32569;51.762;8.564;2022-07-23T10:22:22;7.73;;;7.00;;
15230;SDS011;32569;51.762;8.564;2022-07-23T10:25:04;7.27;;;6.60;;
15230;SDS011;32569;51.762;8.564;2022-07-23T10:27:41;8.27;;;7.37;;
15230;SDS011;32569;51.762;8.564;2022-07-23T10:30:17;6.77;;;6.10;;
15230;SDS011;32569;51.762;8.564;2022-07-23T10:32:50;6.60;;;6.03;;
15230;SDS011;32569;51.762;8.564;2022-07-23T10:35:29;6.97;;;6.00;;
15230;SDS011;32569;51.762;8.564;2022-07-23T10:38:02;6.53;;;5.93;;
15230;SDS011;32569;51.762;8.564;2022-07-23T10:40:49;6.47;;;5.87;;
15230;SDS011;32569;51.762;8.564;2022-07-23T10:43:19;6.80;;;5.57;;
15230;SDS011;32569;51.762;8.564;2022-07-23T10:45:48;7.17;;;6.57;;
15230;SDS011;32569;51.762;8.564;2022-07-23T10:48:16;6.40;;;5.80;;
15230;SDS011;32569;51.762;8.564;2022-07-23T10:59:31;6.07;;;5.37;;
15230;SDS011;32569;51.762;8.564;2022-07-23T11:04:51;5.40;;;4.80;;
15230;SDS011;32569;51.762;8.564;2022-07-23T11:07:19;5.47;;;4.60;;
15230;SDS011;32569;51.762;8.564;2022-07-23T11:09:45;4.70;;;4.30;;
15230;SDS011;32569;51.762;8.564;2022-07-23T11:15:00;4.60;;;4.20;;
15230;SDS011;32569;51.762;8.564;2022-07-23T11:17:31;5.73;;;4.80;;
15230;SDS011;32569;51.762;8.564;2022-07-23T11:20:18;4.27;;;3.87;;
15230;SDS011;32569;51.762;8.564;2022-07-23T11:22:47;5.60;;;3.97;;
15230;SDS011;32569;51.762;8.564;2022-07-23T11:25:28;5.90;;;4.40;;
15230;SDS011;32569;51.762;8.564;2022-07-23T11:28:07;4.20;;;3.80;;
15230;SDS011;32569;51.762;8.564;2022-07-23T11:30:37;4.43;;;3.70;;
15230;SDS011;32569;51.762;8.564;2022-07-23T11:33:19;4.47;;;4.07;;
15230;SDS011;32569;51.762;8.564;2022-07-23T11:35:48;4.17;;;3.67;;
15230;SDS011;32569;51.762;8.564;2022-07-23T11:38:25;4.13;;;3.60;;
15230;SDS011;32569;51.762;8.564;2022-07-23T11:40:52;4.63;;;3.93;;
15230;SDS011;32569;51.762;8.564;2022-07-23T11:43:21;4.60;;;4.20;;
15230;SDS011;32569;51.762;8.564;2022-07-23T11:45:48;5.33;;;3.20;;
15230;SDS011;32569;51.762;8.564;2022-07-23T11:48:17;3.60;;;3.30;;
15230;SDS011;32569;51.762;8.564;2022-07-23T11:50:47;4.43;;;3.60;;
15230;SDS011;32569;51.762;8.564;2022-07-23T11:53:20;4.20;;;3.80;;
15230;SDS011;32569;51.762;8.564;2022-07-23T11:55:48;4.77;;;3.70;;
15230;SDS011;32569;51.762;8.564;2022-07-23T11:58:15;3.97;;;3.57;;
15230;SDS011;32569;51.762;8.564;2022-07-23T12:00:42;3.67;;;3.37;;
15230;SDS011;32569;51.762;8.564;2022-07-23T12:03:09;4.37;;;3.97;;
15230;SDS011;32569;51.762;8.564;2022-07-23T12:05:37;6.13;;;3.43;;
15230;SDS011;32569;51.762;8.564;2022-07-23T12:08:06;4.10;;;2.97;;
15230;SDS011;32569;51.762;8.564;2022-07-23T12:10:35;4.40;;;3.20;;
15230;SDS011;32569;51.762;8.564;2022-07-23T12:13:03;3.67;;;3.33;;
15230;SDS011;32569;51.762;8.564;2022-07-23T12:15:31;3.23;;;2.83;;
15230;SDS011;32569;51.762;8.564;2022-07-23T12:18:03;3.47;;;3.17;;
15230;SDS011;32569;51.762;8.564;2022-07-23T12:20:32;3.50;;;3.20;;
15230;SDS011;32569;51.762;8.564;2022-07-23T12:23:03;5.37;;;3.60;;
15230;SDS011;32569;51.762;8.564;2022-07-23T12:25:31;4.60;;;2.70;;
15230;SDS011;32569;51.762;8.564;2022-07-23T12:28:01;3.97;;;2.93;;
15230;SDS011;32569;51.762;8.564;2022-07-23T12:30:30;3.57;;;2.80;;
15230;SDS011;32569;51.762;8.564;2022-07-23T12:32:58;3.07;;;2.87;;
15230;SDS011;32569;51.762;8.564;2022-07-23T12:35:30;3.27;;;3.00;;
15230;SDS011;32569;51.762;8.564;2022-07-23T12:38:00;3.07;;;2.77;;
15230;SDS011;32569;51.762;8.564;2022-07-23T12:40:29;3.50;;;3.20;;
15230;SDS011;32569;51.762;8.564;2022-07-23T12:42:58;3.93;;;3.10;;
15230;SDS011;32569;51.762;8.564;2022-07-23T12:45:27;3.23;;;2.70;;
15230;SDS011;32569;51.762;8.564;2022-07-23T12:48:07;2.67;;;2.47;;
15230;SDS011;32569;51.762;8.564;2022-07-23T12:50:35;2.30;;;2.10;;
15230;SDS011;32569;51.762;8.564;2022-07-23T12:53:04;2.30;;;2.10;;
15230;SDS011;32569;51.762;8.564;2022-07-23T12:55:33;3.97;;;2.90;;
15230;SDS011;32569;51.762;8.564;2022-07-23T12:58:04;2.97;;;2.50;;
15230;SDS011;32569;51.762;8.564;2022-07-23T13:03:33;3.07;;;2.70;;
15230;SDS011;32569;51.762;8.564;2022-07-23T13:06:02;4.10;;;2.70;;
15230;SDS011;32569;51.762;8.564;2022-07-23T13:08:31;2.77;;;2.50;;
15230;SDS011;32569;51.762;8.564;2022-07-23T13:11:00;2.27;;;2.03;;
15230;SDS011;32569;51.762;8.564;2022-07-23T13:13:28;2.93;;;2.73;;
15230;SDS011;32569;51.762;8.564;2022-07-23T13:15:57;2.57;;;2.37;;
15230;SDS011;32569;51.762;8.564;2022-07-23T13:18:25;3.03;;;2.50;;
15230;SDS011;32569;51.762;8.564;2022-07-23T13:20:52;2.93;;;2.63;;
15230;SDS011;32569;51.762;8.564;2022-07-23T13:23:20;2.67;;;2.43;;
15230;SDS011;32569;51.762;8.564;2022-07-23T13:25:47;3.00;;;2.80;;
15230;SDS011;32569;51.762;8.564;2022-07-23T13:28:16;2.53;;;2.33;;
15230;SDS011;32569;51.762;8.564;2022-07-23T13:30:44;3.57;;;2.53;;
15230;SDS011;32569;51.762;8.564;2022-07-23T13:33:12;3.20;;;2.50;;
15230;SDS011;32569;51.762;8.564;2022-07-23T13:35:39;2.60;;;2.33;;
15230;SDS011;32569;51.762;8.564;2022-07-23T13:38:06;3.70;;;2.70;;
15230;SDS011;32569;51.762;8.564;2022-07-23T13:40:33;4.57;;;2.77;;
15230;SDS011;32569;51.762;8.564;2022-07-23T13:43:01;2.87;;;2.67;;
15230;SDS011;32569;51.762;8.564;2022-07-23T13:45:29;2.97;;;2.67;;
15230;SDS011;32569;51.762;8.564;2022-07-23T13:47:56;3.27;;;3.00;;
15230;SDS011;32569;51.762;8.564;2022-07-23T13:50:22;3.57;;;2.80;;
15230;SDS011;32569;51.762;8.564;2022-07-23T13:52:49;3.53;;;2.40;;
15230;SDS011;32569;51.762;8.564;2022-07-23T13:55:16;2.63;;;2.43;;
15230;SDS011;32569;51.762;8.564;2022-07-23T13:57:43;3.70;;;2.60;;
15230;SDS011;32569;51.762;8.564;2022-07-23T14:00:09;3.10;;;2.60;;
15230;SDS011;32569;51.762;8.564;2022-07-23T14:02:39;2.40;;;2.20;;
15230;SDS011;32569;51.762;8.564;2022-07-23T14:05:07;4.00;;;2.40;;
15230;SDS011;32569;51.762;8.564;2022-07-23T14:07:36;2.70;;;2.50;;
15230;SDS011;32569;51.762;8.564;2022-07-23T14:10:04;2.60;;;2.10;;
15230;SDS011;32569;51.762;8.564;2022-07-23T14:12:31;2.20;;;2.00;;
15230;SDS011;32569;51.762;8.564;2022-07-23T14:14:58;2.30;;;2.10;;
15230;SDS011;32569;51.762;8.564;2022-07-23T14:17:26;2.23;;;2.00;;
15230;SDS011;32569;51.762;8.564;2022-07-23T14:19:54;2.77;;;2.20;;
15230;SDS011;32569;51.762;8.564;2022-07-23T14:22:20;2.20;;;2.00;;
15230;SDS011;32569;51.762;8.564;2022-07-23T14:24:47;2.30;;;1.80;;
15230;SDS011;32569;51.762;8.564;2022-07-23T14:27:14;3.90;;;1.80;;
15230;SDS011;32569;51.762;8.564;2022-07-23T14:29:41;2.70;;;1.93;;
15230;SDS011;32569;51.762;8.564;2022-07-23T14:32:07;2.30;;;2.10;;
15230;SDS011;32569;51.762;8.564;2022-07-23T14:34:34;2.27;;;2.07;;
15230;SDS011;32569;51.762;8.564;2022-07-23T14:37:02;2.63;;;2.10;;
15230;SDS011;32569;51.762;8.564;2022-07-23T14:39:29;2.03;;;1.80;;
15230;SDS011;32569;51.762;8.564;2022-07-23T14:41:56;2.27;;;2.17;;
15230;SDS011;32569;51.762;8.564;2022-07-23T14:44:23;2.53;;;2.20;;
15230;SDS011;32569;51.762;8.564;2022-07-23T14:46:49;2.27;;;2.07;;
15230;SDS011;32569;51.762;8.564;2022-07-23T14:49:16;4.07;;;2.20;;
15230;SDS011;32569;51.762;8.564;2022-07-23T14:51:43;2.40;;;2.20;;
15230;SDS011;32569;51.762;8.564;2022-07-23T14:54:11;2.10;;;1.90;;
15230;SDS011;32569;51.762;8.564;2022-07-23T14:56:38;1.97;;;1.80;;